Time;durP1;ratioP1;P1;durP2;ratioP2;P2;SDS_P1;SDS_P2;PMS_P1;PMS_P2;Temp;Humidity;BMP_temperature;BMP_pressure;BME280_temperature;BME280_humidity;BME280_pressure;Samples;Min_cycle;Max_cycle;Signal;HPM_P1;HPM_P2
2022/07/03 00:02:13;;;;;;;25.70;4.65;;;15.90;99.90;;;;;;5015525;28;20018;-74
2022/07/03 00:04:41;;;;;;;27.90;4.35;;;15.90;99.90;;;;;;5014167;28;20029;-74
2022/07/03 00:07:09;;;;;;;25.40;4.32;;;15.90;99.90;;;;;;5017313;28;20025;-75
2022/07/03 00:09:36;;;;;;;20.60;3.58;;;16.10;99.90;;;;;;5016592;28;20026;-75
2022/07/03 00:12:04;;;;;;;12.13;2.08;;;16.00;99.90;;;;;;5016073;28;20097;-76
2022/07/03 00:14:32;;;;;;;15.38;2.85;;;16.00;99.90;;;;;;5017703;28;20124;-76
2022/07/03 00:16:59;;;;;;;17.23;3.67;;;16.10;99.90;;;;;;5018588;28;20034;-76
2022/07/03 00:19:27;;;;;;;19.02;4.78;;;16.10;99.90;;;;;;5014652;28;20022;-75
2022/07/03 00:21:57;;;;;;;22.98;4.50;;;16.20;99.90;;;;;;5014828;28;20386;-76
2022/07/03 00:24:32;;;;;;;25.80;4.57;;;16.30;99.90;;;;;;5016049;28;20133;-76
2022/07/03 00:27:01;;;;;;;20.25;3.70;;;16.20;99.90;;;;;;5014815;28;20034;-76
2022/07/03 00:29:37;;;;;;;14.23;2.67;;;16.20;99.90;;;;;;5015510;28;20053;-76
2022/07/03 00:32:07;;;;;;;23.13;3.97;;;16.20;99.90;;;;;;5013630;28;20113;-75
2022/07/03 00:34:35;;;;;;;21.38;2.78;;;16.40;99.90;;;;;;5013781;28;20025;-74
2022/07/03 00:37:02;;;;;;;18.60;3.42;;;16.40;99.90;;;;;;5013077;28;20116;-75
2022/07/03 00:39:30;;;;;;;18.35;2.80;;;16.30;99.90;;;;;;5017541;28;20022;-76
2022/07/03 00:42:05;;;;;;;18.17;3.47;;;16.30;99.90;;;;;;5018830;28;20425;-76
2022/07/03 00:44:45;;;;;;;17.33;3.38;;;16.20;99.90;;;;;;5018282;28;20018;-76
2022/07/03 00:47:14;;;;;;;21.98;3.70;;;16.10;99.90;;;;;;5014437;28;20486;-75
2022/07/03 00:49:43;;;;;;;21.15;4.25;;;16.00;99.90;;;;;;5013351;28;20037;-76
2022/07/03 00:52:13;;;;;;;19.17;3.53;;;16.00;99.90;;;;;;5014351;28;20026;-76
2022/07/03 00:54:46;;;;;;;20.38;3.20;;;16.00;99.90;;;;;;5015408;28;20482;-77
2022/07/03 00:57:17;;;;;;;20.05;3.50;;;16.00;99.90;;;;;;5016109;28;20026;-76
2022/07/03 00:59:45;;;;;;;15.35;3.45;;;16.10;99.90;;;;;;5016587;28;20022;-76
2022/07/03 01:02:26;;;;;;;20.92;3.67;;;16.20;99.90;;;;;;5016078;28;20017;-76
2022/07/03 01:05:10;;;;;;;16.10;3.33;;;16.30;99.90;;;;;;5014497;28;20555;-75
2022/07/03 01:08:08;;;;;;;18.92;3.35;;;16.40;99.90;;;;;;5015680;28;20033;-76
2022/07/03 01:10:59;;;;;;;23.05;4.00;;;16.50;99.90;;;;;;5020876;28;20072;-75
2022/07/03 01:13:39;;;;;;;;;;;16.50;99.90;;;;;;5016754;28;20025;-75
2022/07/03 01:16:41;;;;;;;18.17;3.58;;;16.50;99.90;;;;;;5014972;28;19905;-75
2022/07/03 01:19:41;;;;;;;17.85;3.08;;;16.40;99.90;;;;;;5019769;28;20086;-76
2022/07/03 01:22:31;;;;;;;17.30;3.47;;;16.40;99.90;;;;;;5022837;28;20026;-75
2022/07/03 01:25:22;;;;;;;20.63;4.68;;;16.40;99.90;;;;;;5023891;28;20518;-76
2022/07/03 01:28:01;;;;;;;17.48;3.17;;;16.40;99.90;;;;;;5018882;28;20029;-75
2022/07/03 01:30:31;;;;;;;16.60;3.10;;;16.40;99.90;;;;;;5015129;28;20069;-76
2022/07/03 01:33:12;;;;;;;15.93;2.78;;;16.30;99.90;;;;;;5015939;28;20041;-75
2022/07/03 01:35:40;;;;;;;;;;;16.30;99.90;;;;;;5017425;28;20026;-72
2022/07/03 01:38:10;;;;;;;16.98;3.38;;;16.30;99.90;;;;;;5015384;28;20336;-74
2022/07/03 01:40:38;;;;;;;;;;;16.30;99.90;;;;;;5015972;28;20076;-74
2022/07/03 01:43:12;;;;;;;15.68;2.60;;;16.20;99.90;;;;;;5016813;28;20369;-74
2022/07/03 01:45:49;;;;;;;16.52;2.83;;;16.30;99.90;;;;;;5016902;28;20049;-74
2022/07/03 01:48:18;;;;;;;21.95;4.47;;;16.30;99.90;;;;;;5016705;28;20030;-73
2022/07/03 01:50:49;;;;;;;21.77;3.60;;;16.30;99.90;;;;;;5016697;28;20359;-74
2022/07/03 01:53:17;;;;;;;17.60;3.90;;;16.30;99.90;;;;;;5016348;28;20050;-73
2022/07/03 01:55:46;;;;;;;20.83;3.60;;;16.30;99.90;;;;;;5016623;28;20061;-74
2022/07/03 01:58:13;;;;;;;22.75;3.95;;;16.40;99.90;;;;;;5015280;28;20065;-75
2022/07/03 02:01:07;;;;;;;18.50;4.95;;;16.40;99.90;;;;;;5015148;28;20028;-75
2022/07/03 02:03:39;;;;;;;23.33;4.00;;;16.40;99.90;;;;;;5015386;28;20022;-75
2022/07/03 02:06:38;;;;;;;22.98;5.03;;;16.40;99.90;;;;;;5016575;28;20394;-75
2022/07/03 02:09:07;;;;;;;23.63;3.90;;;16.50;99.90;;;;;;5011229;28;20061;-75
2022/07/03 02:11:39;;;;;;;20.85;4.13;;;16.50;99.90;;;;;;5016835;28;20030;-75
2022/07/03 02:14:24;;;;;;;17.75;3.60;;;16.40;99.90;;;;;;5016320;28;20022;-76
2022/07/03 02:17:08;;;;;;;24.33;5.03;;;16.40;99.90;;;;;;5016322;28;20049;-75
2022/07/03 02:19:59;;;;;;;19.85;3.70;;;16.40;99.90;;;;;;5016303;28;20026;-76
2022/07/03 02:22:32;;;;;;;21.63;3.80;;;16.50;99.90;;;;;;5015030;28;20025;-76
2022/07/03 02:25:13;;;;;;;20.17;3.45;;;16.40;99.90;;;;;;5016173;28;20018;-75
2022/07/03 02:27:48;;;;;;;19.13;4.45;;;16.40;99.90;;;;;;5016189;28;20100;-76
2022/07/03 02:30:18;;;;;;;20.65;4.68;;;16.40;99.90;;;;;;5016458;28;20026;-76
2022/07/03 02:32:50;;;;;;;19.15;4.68;;;16.30;99.90;;;;;;5016180;28;20025;-75
2022/07/03 02:35:31;;;;;;;23.52;4.43;;;16.10;99.90;;;;;;5016038;28;20367;-75
2022/07/03 02:38:07;;;;;;;24.80;4.43;;;15.90;99.90;;;;;;5015877;28;20030;-75
2022/07/03 02:40:38;;;;;;;19.70;4.72;;;15.80;99.90;;;;;;5014503;28;20026;-75
2022/07/03 02:43:11;;;;;;;23.67;4.07;;;15.80;99.90;;;;;;5015903;28;20018;-75
2022/07/03 02:45:55;;;;;;;29.35;5.22;;;15.80;99.90;;;;;;5015632;28;20029;-75
2022/07/03 02:48:40;;;;;;;21.90;4.30;;;15.70;99.90;;;;;;5016033;28;20025;-75
2022/07/03 02:51:18;;;;;;;29.65;3.85;;;15.60;99.90;;;;;;5015758;28;20045;-74
2022/07/03 02:53:53;;;;;;;28.45;4.40;;;15.50;99.90;;;;;;5014158;28;20042;-75
2022/07/03 02:56:39;;;;;;;26.02;5.25;;;15.50;99.90;;;;;;5015711;28;20037;-74
2022/07/03 02:59:16;;;;;;;29.60;4.90;;;15.40;99.90;;;;;;5015736;28;20050;-75
2022/07/03 03:02:11;;;;;;;31.02;5.30;;;15.40;99.90;;;;;;5014076;28;20028;-74
2022/07/03 03:04:44;;;;;;;32.03;4.88;;;15.40;99.90;;;;;;5005057;28;20042;-74
2022/07/03 03:07:23;;;;;;;22.73;4.35;;;15.30;99.90;;;;;;5015809;28;20493;-76
2022/07/03 03:09:50;;;;;;;31.15;5.05;;;15.30;99.90;;;;;;5015311;28;20018;-76
2022/07/03 03:12:29;;;;;;;28.33;4.65;;;15.30;99.90;;;;;;5013941;28;20570;-77
2022/07/03 03:15:03;;;;;;;36.17;5.88;;;15.30;99.90;;;;;;5015316;28;20036;-76
2022/07/03 03:18:00;;;;;;;34.30;5.20;;;15.30;99.90;;;;;;5015169;28;20033;-75
2022/07/03 03:20:33;;;;;;;31.08;4.90;;;15.30;99.90;;;;;;5012964;28;20038;-75
2022/07/03 03:23:12;;;;;;;30.50;5.53;;;15.20;99.90;;;;;;5015091;28;20018;-75
2022/07/03 03:25:39;;;;;;;30.50;5.15;;;15.10;99.90;;;;;;5015035;28;20439;-75
2022/07/03 03:28:07;;;;;;;26.00;4.60;;;15.10;99.90;;;;;;5015003;28;20057;-75
2022/07/03 03:30:36;;;;;;;27.52;4.63;;;15.10;99.90;;;;;;5013483;28;20030;-75
2022/07/03 03:33:09;;;;;;;37.38;6.32;;;15.00;99.90;;;;;;5014949;28;20026;-76
2022/07/03 03:35:38;;;;;;;41.78;5.93;;;15.10;99.90;;;;;;5013492;28;20088;-75
2022/07/03 03:38:06;;;;;;;31.70;5.55;;;15.10;99.90;;;;;;5014778;28;20018;-75
2022/07/03 03:40:34;;;;;;;33.15;5.25;;;15.10;99.90;;;;;;5014968;28;20048;-76
2022/07/03 03:43:02;;;;;;;32.40;4.43;;;15.10;99.90;;;;;;5017945;28;20191;-76
2022/07/03 03:45:30;;;;;;;33.78;5.47;;;15.00;99.90;;;;;;5019409;28;20029;-76
2022/07/03 03:47:58;;;;;;;37.90;6.00;;;15.00;99.90;;;;;;5016298;28;20540;-77
2022/07/03 03:50:26;;;;;;;33.97;5.82;;;15.10;99.90;;;;;;5018568;28;20029;-75
2022/07/03 03:52:53;;;;;;;36.17;6.53;;;15.10;99.90;;;;;;5013005;28;20053;-74
2022/07/03 03:55:21;;;;;;;27.30;4.75;;;15.10;99.90;;;;;;5013560;28;20026;-73
2022/07/03 03:57:48;;;;;;;34.28;6.65;;;15.00;99.90;;;;;;5012802;28;20544;-72
2022/07/03 04:00:16;;;;;;;28.42;4.93;;;14.90;99.90;;;;;;5014274;28;20501;-71
2022/07/03 04:02:43;;;;;;;26.85;4.30;;;14.80;99.90;;;;;;5014290;28;20026;-74
2022/07/03 04:05:10;;;;;;;30.00;4.55;;;14.80;99.90;;;;;;5014200;28;20076;-74
2022/07/03 04:07:38;;;;;;;24.55;4.85;;;14.80;99.90;;;;;;5012837;28;20026;-75
2022/07/03 04:10:05;;;;;;;30.65;5.50;;;14.80;99.90;;;;;;5014134;28;20079;-75
2022/07/03 04:12:33;;;;;;;30.50;5.57;;;14.80;99.90;;;;;;5012435;28;20048;-75
2022/07/03 04:15:00;;;;;;;33.47;6.20;;;14.90;99.90;;;;;;5012693;28;20029;-74
2022/07/03 04:17:27;;;;;;;39.50;6.22;;;14.90;99.90;;;;;;5013804;28;20117;-74
2022/07/03 04:19:55;;;;;;;32.08;5.43;;;15.00;99.90;;;;;;5014058;28;20022;-74
2022/07/03 04:22:22;;;;;;;40.53;7.45;;;15.00;99.90;;;;;;5012400;28;20017;-74
2022/07/03 04:24:49;;;;;;;33.53;5.70;;;15.00;99.90;;;;;;5012515;28;20025;-74
2022/07/03 04:27:17;;;;;;;28.58;4.25;;;15.00;99.90;;;;;;5013739;28;20501;-74
2022/07/03 04:29:44;;;;;;;30.17;5.20;;;14.90;99.90;;;;;;5013885;28;20022;-74
2022/07/03 04:32:12;;;;;;;31.35;4.57;;;14.80;99.90;;;;;;5013950;28;20029;-75
2022/07/03 04:34:39;;;;;;;29.52;5.38;;;14.80;99.90;;;;;;5013826;28;20072;-74
2022/07/03 04:37:06;;;;;;;34.97;6.18;;;14.80;99.90;;;;;;5013825;28;20021;-76
2022/07/03 04:39:34;;;;;;;39.08;5.90;;;14.80;99.90;;;;;;5014006;28;20014;-76
2022/07/03 04:42:01;;;;;;;30.30;5.25;;;14.90;99.90;;;;;;5013658;28;20025;-76
2022/07/03 04:44:28;;;;;;;27.98;5.32;;;14.90;99.90;;;;;;5013908;28;20026;-75
2022/07/03 04:46:55;;;;;;;27.65;4.53;;;14.80;99.90;;;;;;5013204;28;20033;-75
2022/07/03 04:49:23;;;;;;;23.67;4.75;;;14.80;99.90;;;;;;5014360;28;20018;-74
2022/07/03 04:51:52;;;;;;;27.88;5.07;;;14.70;99.90;;;;;;5012063;28;20516;-73
2022/07/03 04:54:19;;;;;;;29.30;4.25;;;14.70;99.90;;;;;;5012848;28;20132;-75
2022/07/03 04:56:47;;;;;;;25.83;5.47;;;14.60;99.90;;;;;;5013945;28;20117;-75
2022/07/03 04:59:14;;;;;;;36.42;5.70;;;14.60;99.90;;;;;;5012729;28;20018;-75
2022/07/03 05:01:41;;;;;;;36.35;5.95;;;14.60;99.90;;;;;;5015761;28;20466;-76
2022/07/03 05:04:09;;;;;;;21.70;3.92;;;14.50;99.90;;;;;;5016605;28;20033;-74
2022/07/03 05:06:36;;;;;;;27.52;4.90;;;14.50;99.90;;;;;;5014263;28;20055;-76
2022/07/03 05:09:08;;;;;;;23.48;4.28;;;14.40;99.90;;;;;;5020059;28;20090;-75
2022/07/03 05:11:35;;;;;;;27.48;4.57;;;14.40;99.90;;;;;;5021249;28;20371;-73
2022/07/03 05:14:04;;;;;;;35.60;5.53;;;14.30;99.90;;;;;;5020484;28;20053;-74
2022/07/03 05:16:32;;;;;;;32.17;4.75;;;14.40;99.90;;;;;;5018993;28;20048;-73
2022/07/03 05:18:59;;;;;;;30.17;4.80;;;14.40;99.90;;;;;;5018518;28;20420;-74
2022/07/03 05:21:27;;;;;;;30.70;5.50;;;14.40;99.90;;;;;;5021204;28;20026;-74
2022/07/03 05:23:54;;;;;;;32.45;5.25;;;14.40;99.90;;;;;;5025476;28;20029;-74
2022/07/03 05:26:22;;;;;;;22.50;4.50;;;14.40;99.90;;;;;;5024888;28;20022;-74
2022/07/03 05:28:49;;;;;;;27.75;4.65;;;14.40;99.90;;;;;;5026220;28;20167;-74
2022/07/03 05:31:17;;;;;;;26.60;5.15;;;14.40;99.90;;;;;;5024357;28;20470;-74
2022/07/03 05:33:44;;;;;;;27.20;4.13;;;14.40;99.90;;;;;;5025217;28;20097;-75
2022/07/03 05:36:11;;;;;;;28.00;4.55;;;14.40;99.90;;;;;;5024656;28;20089;-75
2022/07/03 05:41:24;;;;;;;21.20;3.90;;;14.40;99.90;;;;;;5024456;28;20029;-74
2022/07/03 05:43:51;;;;;;;29.63;5.25;;;14.40;99.90;;;;;;5020219;28;20228;-77
2022/07/03 05:46:19;;;;;;;24.50;4.25;;;14.50;99.90;;;;;;5019973;28;20026;-76
2022/07/03 05:48:46;;;;;;;29.17;4.68;;;14.50;99.90;;;;;;5022225;28;20406;-75
2022/07/03 05:51:13;;;;;;;33.45;5.05;;;14.60;99.90;;;;;;5021085;28;20018;-75
2022/07/03 05:53:41;;;;;;;29.60;4.53;;;14.60;99.90;;;;;;5018448;28;20046;-76
2022/07/03 05:56:08;;;;;;;25.38;4.38;;;14.60;99.90;;;;;;5019333;28;20064;-76
2022/07/03 05:58:35;;;;;;;31.55;4.85;;;14.50;99.90;;;;;;5017788;28;20022;-76
2022/07/03 06:01:03;;;;;;;30.65;5.28;;;14.60;99.90;;;;;;5016382;28;20532;-75
2022/07/03 06:03:30;;;;;;;27.40;4.80;;;14.60;99.90;;;;;;5019631;28;20022;-76
2022/07/03 06:05:59;;;;;;;21.65;4.15;;;14.60;99.90;;;;;;5015567;28;20022;-75
2022/07/03 06:08:27;;;;;;;26.20;3.80;;;14.50;99.90;;;;;;5022033;28;20032;-75
2022/07/03 06:10:55;;;;;;;21.25;3.20;;;14.50;99.90;;;;;;5016707;28;20046;-74
2022/07/03 06:13:22;;;;;;;19.67;2.88;;;14.50;99.90;;;;;;5016440;28;20064;-75
2022/07/03 06:15:50;;;;;;;17.45;3.72;;;14.50;99.90;;;;;;5015237;28;20025;-75
2022/07/03 06:18:17;;;;;;;16.05;3.28;;;14.50;99.90;;;;;;5015783;28;20112;-75
2022/07/03 06:20:44;;;;;;;21.30;3.33;;;14.50;99.90;;;;;;5020634;28;20064;-75
2022/07/03 06:23:12;;;;;;;21.63;3.38;;;14.50;99.90;;;;;;5019304;28;20021;-74
2022/07/03 06:25:39;;;;;;;28.00;4.40;;;14.50;99.90;;;;;;5017146;28;20026;-75
2022/07/03 06:28:06;;;;;;;28.45;4.60;;;14.40;99.90;;;;;;5017316;28;20030;-74
2022/07/03 06:30:33;;;;;;;24.33;3.80;;;14.40;99.90;;;;;;5016882;28;20581;-74
2022/07/03 06:33:01;;;;;;;29.67;4.35;;;14.50;99.90;;;;;;5019073;28;20030;-75
2022/07/03 06:35:28;;;;;;;26.25;5.28;;;14.40;99.90;;;;;;5015834;28;20030;-74
2022/07/03 06:37:55;;;;;;;23.30;4.80;;;14.50;99.90;;;;;;5015936;28;20022;-74
2022/07/03 06:40:23;;;;;;;26.15;5.28;;;14.50;99.90;;;;;;5015933;28;20018;-73
2022/07/03 06:42:50;;;;;;;26.40;4.38;;;14.50;99.90;;;;;;5014814;28;20413;-74
2022/07/03 06:45:18;;;;;;;20.80;3.70;;;14.50;99.90;;;;;;5015656;28;20018;-75
2022/07/03 06:47:45;;;;;;;24.00;3.92;;;14.50;99.90;;;;;;5016164;28;20029;-74
2022/07/03 06:50:12;;;;;;;28.55;5.25;;;14.60;99.90;;;;;;5015864;28;20136;-74
2022/07/03 06:52:40;;;;;;;24.38;4.05;;;14.60;99.90;;;;;;5015458;28;20128;-75
2022/07/03 06:55:07;;;;;;;20.77;3.58;;;14.50;99.90;;;;;;5015887;28;20034;-74
2022/07/03 06:57:35;;;;;;;15.38;3.33;;;14.50;99.90;;;;;;5014250;28;20022;-74
2022/07/03 07:00:02;;;;;;;22.75;3.65;;;14.50;99.90;;;;;;5015562;28;20079;-74
2022/07/03 07:02:30;;;;;;;20.23;3.92;;;14.50;99.90;;;;;;5015886;28;20407;-74
2022/07/03 07:04:57;;;;;;;23.55;3.50;;;14.50;99.90;;;;;;5014111;28;20389;-74
2022/07/03 07:07:24;;;;;;;21.60;3.90;;;14.40;99.90;;;;;;5015331;28;20045;-74
2022/07/03 07:09:52;;;;;;;16.50;3.75;;;14.40;99.90;;;;;;5013956;28;20037;-74
2022/07/03 07:12:19;;;;;;;27.92;3.38;;;14.40;99.90;;;;;;5013822;28;20165;-74
2022/07/03 07:14:46;;;;;;;17.10;3.30;;;14.40;99.90;;;;;;5015230;28;20029;-74
2022/07/03 07:17:14;;;;;;;21.23;4.05;;;14.40;99.90;;;;;;5015060;28;20026;-74
2022/07/03 07:19:41;;;;;;;23.85;3.88;;;14.30;99.90;;;;;;5015241;28;20025;-74
2022/07/03 07:22:08;;;;;;;25.42;3.60;;;14.30;99.90;;;;;;5014891;28;20033;-74
2022/07/03 07:24:36;;;;;;;22.00;3.75;;;14.30;99.90;;;;;;5015153;28;20022;-74
2022/07/03 07:27:03;;;;;;;23.98;4.32;;;14.40;99.90;;;;;;5013601;28;20144;-74
2022/07/03 07:29:31;;;;;;;30.50;4.32;;;14.30;99.90;;;;;;5014913;28;20041;-74
2022/07/03 07:31:58;;;;;;;18.15;3.20;;;14.30;99.90;;;;;;5015282;28;20034;-74
2022/07/03 07:34:25;;;;;;;15.15;2.95;;;14.30;99.90;;;;;;5013772;28;20496;-75
2022/07/03 07:36:53;;;;;;;19.67;2.70;;;14.30;99.90;;;;;;5014855;28;20109;-74
2022/07/03 07:39:20;;;;;;;16.90;4.07;;;14.20;99.90;;;;;;5015104;28;20026;-74
2022/07/03 07:41:47;;;;;;;26.45;3.83;;;14.30;99.90;;;;;;5013433;28;20546;-74
2022/07/03 07:44:15;;;;;;;22.20;3.10;;;14.30;99.90;;;;;;5014743;28;20057;-74
2022/07/03 07:46:42;;;;;;;19.02;3.08;;;14.30;99.90;;;;;;5014712;28;20021;-75
2022/07/03 07:49:10;;;;;;;21.08;3.80;;;14.30;99.90;;;;;;5014600;28;20022;-74
2022/07/03 07:51:37;;;;;;;25.25;3.63;;;14.30;99.90;;;;;;5014417;28;20049;-74
2022/07/03 07:54:04;;;;;;;19.88;4.03;;;14.40;99.90;;;;;;5014351;28;20056;-75
2022/07/03 07:56:32;;;;;;;21.35;3.72;;;14.40;99.90;;;;;;5014388;28;20049;-74
2022/07/03 07:59:00;;;;;;;19.67;3.33;;;14.40;99.90;;;;;;5014187;28;20022;-74
2022/07/03 08:06:58;;;;;;;23.80;3.55;;;14.40;99.90;;;;;;5014298;28;20029;-74
2022/07/03 08:09:25;;;;;;;19.33;3.72;;;14.40;99.90;;;;;;5014154;28;20030;-74
2022/07/03 08:11:52;;;;;;;23.55;3.58;;;14.40;99.90;;;;;;5014167;28;20499;-74
2022/07/03 08:14:20;;;;;;;29.75;3.83;;;14.40;99.90;;;;;;5014026;28;20593;-74
2022/07/03 08:16:47;;;;;;;26.45;4.40;;;14.40;99.90;;;;;;5013981;28;20109;-74
2022/07/03 08:19:14;;;;;;;28.63;4.53;;;14.40;99.90;;;;;;5013998;28;20022;-73
2022/07/03 08:21:42;;;;;;;21.50;3.42;;;14.40;99.90;;;;;;5013957;28;20018;-74
2022/07/03 08:24:10;;;;;;;19.23;2.90;;;14.40;99.90;;;;;;5013850;28;20080;-74
2022/07/03 08:26:38;;;;;;;24.63;4.55;;;14.30;99.90;;;;;;5013915;28;20080;-74
2022/07/03 08:29:05;;;;;;;21.60;3.45;;;14.30;99.90;;;;;;5013893;28;20054;-74
2022/07/03 08:31:32;;;;;;;26.27;3.35;;;14.30;99.90;;;;;;5013869;28;20033;-74
2022/07/03 08:34:00;;;;;;;21.95;3.67;;;14.30;99.90;;;;;;5012328;28;20400;-74
2022/07/03 08:36:27;;;;;;;22.30;3.53;;;14.20;99.90;;;;;;5013655;28;20026;-73
2022/07/03 08:38:56;;;;;;;16.63;3.13;;;14.30;99.90;;;;;;5013775;28;20018;-74
2022/07/03 08:41:24;;;;;;;19.88;3.15;;;14.30;99.90;;;;;;5013261;28;20072;-74
2022/07/03 08:43:52;;;;;;;24.30;3.00;;;14.30;99.90;;;;;;5013534;28;20050;-73
2022/07/03 08:46:20;;;;;;;22.08;5.10;;;14.30;99.90;;;;;;5013906;28;20036;-73
2022/07/03 08:48:50;;;;;;;22.20;3.40;;;14.30;99.90;;;;;;5014553;28;20101;-73
2022/07/03 08:51:21;;;;;;;22.02;3.83;;;14.30;99.90;;;;;;5013398;28;20364;-74
2022/07/03 08:53:48;;;;;;;25.05;4.15;;;14.20;99.90;;;;;;5013385;28;20038;-73
2022/07/03 08:56:16;;;;;;;23.67;3.15;;;14.20;99.90;;;;;;5013414;28;20025;-74
2022/07/03 08:58:44;;;;;;;19.98;3.92;;;14.20;99.90;;;;;;5013588;28;20100;-74
2022/07/03 09:01:14;;;;;;;20.02;4.13;;;14.10;99.90;;;;;;5011784;28;20113;-74
2022/07/03 09:03:41;;;;;;;;;;;14.10;99.90;;;;;;5014252;28;20021;-73
2022/07/03 09:06:09;;;;;;;21.35;3.38;;;14.20;99.90;;;;;;5011780;28;19909;-75
2022/07/03 09:08:38;;;;;;;22.05;4.07;;;14.20;99.90;;;;;;5011803;28;20403;-74
2022/07/03 09:11:05;;;;;;;25.42;3.65;;;14.20;99.90;;;;;;5013252;28;20025;-74
2022/07/03 09:13:32;;;;;;;28.15;4.13;;;14.30;99.90;;;;;;5011974;28;20026;-74
2022/07/03 09:16:00;;;;;;;25.20;4.60;;;14.30;99.90;;;;;;5011803;28;20493;-74
2022/07/03 09:18:53;;;;;;;29.05;5.72;;;14.40;99.90;;;;;;5013254;28;20029;-73
2022/07/03 09:21:20;;;;;;;30.88;6.03;;;14.40;99.90;;;;;;5010123;28;20106;-74
2022/07/03 09:23:47;;;;;;;21.33;4.03;;;14.40;99.90;;;;;;5013333;28;20018;-74
2022/07/03 09:26:17;;;;;;;20.58;3.85;;;14.40;99.90;;;;;;5013281;28;20458;-74
2022/07/03 09:28:52;;;;;;;22.00;4.33;;;14.40;99.90;;;;;;5013155;28;20034;-73
2022/07/03 09:31:27;;;;;;;23.95;4.03;;;14.40;99.90;;;;;;5013152;28;20382;-74
2022/07/03 09:34:09;;;;;;;23.25;4.28;;;14.40;99.90;;;;;;5013029;28;20519;-73
2022/07/03 09:36:53;;;;;;;22.80;3.58;;;14.40;99.90;;;;;;5013049;28;20029;-74
2022/07/03 09:39:30;;;;;;;28.95;5.05;;;14.40;99.90;;;;;;5013030;28;20026;-74
2022/07/03 09:42:09;;;;;;;17.15;3.83;;;14.50;99.90;;;;;;5011647;28;20026;-74
2022/07/03 09:44:46;;;;;;;21.42;3.70;;;14.50;99.90;;;;;;5012915;28;20026;-74
2022/07/03 09:47:19;;;;;;;20.50;4.07;;;14.50;99.90;;;;;;5013033;28;20544;-74
2022/07/03 09:49:56;;;;;;;22.50;4.28;;;14.50;99.90;;;;;;5012864;28;20028;-74
2022/07/03 09:52:33;;;;;;;18.58;3.40;;;14.50;99.90;;;;;;5012731;28;20054;-74
2022/07/03 09:55:21;;;;;;;20.30;4.10;;;14.50;99.90;;;;;;5015633;28;20022;-74
2022/07/03 09:57:52;;;;;;;25.80;3.63;;;14.50;99.90;;;;;;5016952;28;20029;-74
2022/07/03 10:00:24;;;;;;;21.08;3.15;;;14.50;99.90;;;;;;5016727;28;20363;-74
2022/07/03 10:03:05;;;;;;;23.58;4.30;;;14.50;99.90;;;;;;5016739;28;20026;-74
2022/07/03 10:05:35;;;;;;;26.27;4.55;;;14.60;99.90;;;;;;5016525;28;20441;-74
2022/07/03 10:08:14;;;;;;;24.33;4.32;;;14.60;99.90;;;;;;5015488;28;20084;-74
2022/07/03 10:10:44;;;;;;;25.67;5.53;;;14.60;99.90;;;;;;5017029;28;20029;-75
2022/07/03 10:13:14;;;;;;;26.02;4.43;;;14.50;99.90;;;;;;5017409;28;20022;-75
2022/07/03 10:15:42;;;;;;;30.75;4.65;;;14.50;99.90;;;;;;5016018;28;20037;-74
2022/07/03 10:18:12;;;;;;;33.05;5.05;;;14.50;99.90;;;;;;5017676;28;20364;-75
2022/07/03 10:20:50;;;;;;;31.17;5.75;;;14.50;99.90;;;;;;5016407;28;20486;-75
2022/07/03 10:23:21;;;;;;;32.20;5.43;;;14.50;99.90;;;;;;5016174;28;20034;-74
2022/07/03 10:25:48;;;;;;;29.35;4.95;;;;;;;;;;5016269;28;20077;-75
2022/07/03 10:28:16;;;;;;;28.80;5.68;;;;;;;;;;5016113;28;20049;-74
2022/07/03 10:30:44;;;;;;;24.27;4.00;;;;;;;;;;5016113;28;20030;-74
2022/07/03 10:33:11;;;;;;;23.33;3.85;;;;;;;;;;5016123;28;20030;-75
2022/07/03 10:35:40;;;;;;;26.17;4.47;;;;;;;;;;5014681;28;20033;-74
2022/07/03 10:38:19;;;;;;;25.42;4.82;;;;;;;;;;5016621;28;20021;-74
2022/07/03 10:46:23;;;;;;;33.85;5.38;;;;;;;;;;5015720;28;20033;-74
2022/07/03 10:48:53;;;;;;;31.85;5.28;;;;;;;;;;5015589;28;20022;-73
2022/07/03 10:51:20;;;;;;;34.20;5.20;;;;;;;;;;5014275;28;20437;-73
2022/07/03 10:53:48;;;;;;;29.13;5.88;;;;;;;;;;5015421;28;20338;-74
2022/07/03 10:56:15;;;;;;;31.02;5.03;;;;;;;;;;5015364;28;20471;-75
2022/07/03 10:58:59;;;;;;;34.80;5.38;;;;;;;;;;5014133;28;20056;-74
2022/07/03 11:01:30;;;;;;;30.45;5.75;;;;;;;;;;5014242;28;20029;-73
2022/07/03 11:04:00;;;;;;;29.13;5.28;;;;;;;;;;5015695;28;20144;-73
2022/07/03 11:06:27;;;;;;;;;;;;;;;;;;5015428;28;20109;-73
2022/07/03 11:09:04;;;;;;;33.70;5.32;;;;;;;;;;5015302;28;19906;-73
2022/07/03 11:14:20;;;;;;;25.63;4.30;;;;;;;;;;5015845;28;20460;-75
2022/07/03 11:16:47;;;;;;;30.02;5.45;;;;;;;;;;5015294;28;20053;-74
2022/07/03 11:19:15;;;;;;;32.65;5.93;;;;;;;;;;5014973;28;20088;-74
2022/07/03 11:21:51;;;;;;;34.83;6.22;;;;;;;;;;5015121;28;20134;-73
2022/07/03 11:24:39;;;;;;;34.65;6.22;;;;;;;;;;5015198;28;20026;-73
2022/07/03 11:27:14;;;;;;;29.48;5.60;;;;;;;;;;5015343;28;20478;-73
2022/07/03 11:29:41;;;;;;;22.60;4.63;;;;;;;;;;5015064;28;20053;-74
2022/07/03 11:32:45;;;;;;;25.25;4.32;;;;;;;;;;5015243;28;20453;-73
2022/07/03 11:35:30;;;;;;;32.60;5.28;;;;;;;;;;5013461;28;20030;-74
2022/07/03 11:37:58;;;;;;;30.60;4.80;;;;;;;;;;5014687;28;20034;-73
2022/07/03 11:40:29;;;;;;;25.08;4.20;;;;;;;;;;5014751;28;20018;-75
2022/07/03 11:42:55;;;;;;;;;;;;;;;;;;5013829;28;20109;-74
2022/07/03 11:45:24;;;;;;;32.63;5.43;;;;;;;;;;5015087;28;19955;-74
2022/07/03 11:47:51;;;;;;;30.15;5.68;;;;;;;;;;5014845;28;20080;-73
2022/07/03 11:50:18;;;;;;;33.95;6.15;;;;;;;;;;5014613;28;20490;-74
2022/07/03 11:52:45;;;;;;;33.33;5.47;;;;;;;;;;5014406;28;20112;-74
2022/07/03 11:55:13;;;;;;;31.80;5.43;;;;;;;;;;5014599;28;20026;-74
2022/07/03 11:57:50;;;;;;;33.25;5.50;;;;;;;;;;5015035;28;20048;-75
2022/07/03 12:00:17;;;;;;;33.28;5.72;;;;;;;;;;5014868;28;20029;-75
2022/07/03 12:02:51;;;;;;;27.35;5.57;;;;;;;;;;5014693;28;20018;-75
2022/07/03 12:05:18;;;;;;;29.92;5.32;;;;;;;;;;5012997;28;20032;-75
2022/07/03 12:07:45;;;;;;;33.97;4.88;;;;;;;;;;5014382;28;20029;-75
2022/07/03 12:10:13;;;;;;;25.67;4.85;;;;;;;;;;5012887;28;20029;-76
2022/07/03 12:12:40;;;;;;;34.88;5.75;;;;;;;;;;5014606;28;20038;-75
2022/07/03 12:15:07;;;;;;;32.10;6.55;;;;;;;;;;5014168;28;20037;-76
2022/07/03 12:17:34;;;;;;;33.72;6.10;;;;;;;;;;5013388;28;20022;-75
2022/07/03 12:20:02;;;;;;;36.58;6.40;;;;;;;;;;5012606;28;20108;-74
2022/07/03 12:22:33;;;;;;;30.80;5.00;;;;;;;;;;5014433;28;20025;-75
2022/07/03 12:25:08;;;;;;;29.60;4.65;;;;;;;;;;5013904;28;20076;-74
2022/07/03 12:27:36;;;;;;;35.38;5.82;;;;;;;;;;5016378;28;20096;-75
2022/07/03 12:30:04;;;;;;;26.98;5.20;;;;;;;;;;5015589;28;20026;-76
2022/07/03 12:32:31;;;;;;;28.92;5.20;;;;;;;;;;5013026;28;20065;-75
2022/07/03 12:34:58;;;;;;;26.63;4.65;;;;;;;;;;5014222;28;20100;-75
2022/07/03 12:37:51;;;;;;;32.17;5.53;;;;;;;;;;5012643;28;20030;-74
2022/07/03 12:40:19;;;;;;;28.08;5.25;;;;;;;;;;5009717;28;20038;-75
2022/07/03 12:42:47;;;;;;;31.48;5.82;;;;;;;;;;5013936;28;20476;-75
2022/07/03 12:45:16;;;;;;;34.05;6.40;;;;;;;;;;5012530;28;20022;-74
2022/07/03 12:47:43;;;;;;;34.03;6.07;;;;;;;;;;5013712;28;20030;-74
2022/07/03 12:50:10;;;;;;;26.70;4.85;;;;;;;;;;5013934;28;20021;-75
2022/07/03 12:52:51;;;;;;;28.30;5.93;;;;;;;;;;5013492;28;20446;-74
2022/07/03 12:55:25;;;;;;;35.60;4.93;;;;;;;;;;5013410;28;20546;-74
2022/07/03 13:00:58;;;;;;;29.40;4.60;;;;;;;;;;5009862;28;20052;-74
2022/07/03 13:03:32;;;;;;;29.73;4.38;;;;;;;;;;5013641;28;20101;-74
2022/07/03 13:05:59;;;;;;;30.02;4.88;;;;;;;;;;5012208;28;20022;-74
2022/07/03 13:08:27;;;;;;;27.88;4.82;;;;;;;;;;5012132;28;20084;-74
2022/07/03 13:10:55;;;;;;;27.98;4.95;;;;;;;;;;5013349;28;20030;-74
2022/07/03 13:13:23;;;;;;;25.98;5.47;;;;;;;;;;5011959;28;20030;-74
2022/07/03 13:15:50;;;;;;;28.92;5.15;;;;;;;;;;5013374;28;20028;-74
2022/07/03 13:18:25;;;;;;;21.38;4.20;;;;;;;;;;5013353;28;20166;-74
2022/07/03 13:41:18;;;;;;;37.10;5.97;;;;;;;;;;5013697;28;20024;-75
2022/07/03 14:04:52;;;;;;;35.20;6.97;;;;;;;;;;5013230;28;20029;-75
2022/07/03 14:16:15;;;;;;;35.92;5.65;;;;;;;;;;5012457;28;20021;-74
2022/07/03 14:19:17;;;;;;;37.30;6.25;;;;;;;;;;5011300;28;20121;-74
2022/07/03 14:22:21;;;;;;;35.70;6.82;;;;;;;;;;4982552;28;20037;-75
2022/07/03 14:33:21;;;;;;;35.40;5.78;;;;;;;;;;5012663;28;20032;-74
2022/07/03 14:45:04;;;;;;;31.15;5.95;;;;;;;;;;5016131;28;20434;-74
2022/07/03 14:47:57;;;;;;;28.17;5.95;;;;;;;;;;5015867;28;20026;-74
2022/07/03 14:53:39;;;;;;;31.38;6.35;;;;;;;;;;5016123;28;20095;-73
2022/07/03 15:06:45;;;;;;;27.85;4.82;;;15.40;99.90;;;;;;4821622;26;3014191;-69